首页
METAR-TAF:

METAR-TAF

机场 :

伦敦斯坦斯特德机场

坦斯特德機場, 英格兰

纬度: 51-53N, 经度: 000-14E, 海拔: 106米

当前天气观测

该预报发布于37分钟前的09:50 UTC
风速6节,风向西转西北,在西南北转西北之间变化
温度 20°C
湿度 43%
气压 1036 hPa
能见度10公里或以上

METAR: EGSS 260950Z AUTO 30006KT 230V330 9999 NCD 20/07 Q1036

时间: 11:27 (10:27 UTC)

预报

该预报发布于5小时和31分钟前的04:56 UTC
预报有效从26日的 06点(UTC)到 27日的 12点(UTC)
风速6节,风向西转西北
能见度10公里或以上
1500米以下无云,无积雨云
短暂存在
从 26日的 15点(UTC)到 27日的 12点(UTC)
多云层高于4500英尺

TAF: EGSS 260456Z 2606/2712 30006KT CAVOK TEMPO 2615/2712 BKN045

超过4000个机场的气象观测和天气预报(METAR&TAF报告)。

可查询的气象台以黄色和红色小点在地图上表示。

将鼠标移到小点上方,可查看气象台名称。

然后点击查看天气观测和预报。

如需切换地图:点击带黑十字的绿色按钮放大地图;点击带横线的绿色按钮缩小地图;或者点击绿色箭头查看邻近地区的地图。


METAR-TAF: